sensor_id;sensor_type;location;lat;lon;timestamp;temperature;humidity
22956;DHT22;40888;48.148;11.526;2023-04-22T00:00:30;12.40;99.90
22956;DHT22;40888;48.148;11.526;2023-04-22T00:02:58;12.40;99.90
22956;DHT22;40888;48.148;11.526;2023-04-22T00:05:23;12.30;99.90
22956;DHT22;40888;48.148;11.526;2023-04-22T00:07:49;12.10;99.90
22956;DHT22;40888;48.148;11.526;2023-04-22T00:10:15;12.10;99.90
22956;DHT22;40888;48.148;11.526;2023-04-22T00:12:41;12.20;99.90
22956;DHT22;40888;48.148;11.526;2023-04-22T00:15:07;12.20;99.90
22956;DHT22;40888;48.148;11.526;2023-04-22T00:17:33;12.20;99.90
22956;DHT22;40888;48.148;11.526;2023-04-22T00:19:59;12.20;99.90
22956;DHT22;40888;48.148;11.526;2023-04-22T00:22:26;12.20;99.90
22956;DHT22;40888;48.148;11.526;2023-04-22T00:24:51;12.20;99.90
22956;DHT22;40888;48.148;11.526;2023-04-22T00:27:17;12.20;99.90
22956;DHT22;40888;48.148;11.526;2023-04-22T00:29:43;12.10;99.90
22956;DHT22;40888;48.148;11.526;2023-04-22T00:32:08;12.10;99.90
22956;DHT22;40888;48.148;11.526;2023-04-22T00:34:34;12.20;99.90
22956;DHT22;40888;48.148;11.526;2023-04-22T00:37:00;12.20;99.90
22956;DHT22;40888;48.148;11.526;2023-04-22T00:39:26;12.20;99.90
22956;DHT22;40888;48.148;11.526;2023-04-22T00:41:52;12.20;99.90
22956;DHT22;40888;48.148;11.526;2023-04-22T00:44:18;12.20;99.90
22956;DHT22;40888;48.148;11.526;2023-04-22T00:46:44;12.10;99.90
22956;DHT22;40888;48.148;11.526;2023-04-22T00:49:10;12.10;99.90
22956;DHT22;40888;48.148;11.526;2023-04-22T00:51:36;12.20;99.90
22956;DHT22;40888;48.148;11.526;2023-04-22T00:54:02;12.20;99.90
22956;DHT22;40888;48.148;11.526;2023-04-22T00:56:30;12.10;99.90
22956;DHT22;40888;48.148;11.526;2023-04-22T00:58:56;12.10;99.90
22956;DHT22;40888;48.148;11.526;2023-04-22T01:01:22;12.20;99.90
22956;DHT22;40888;48.148;11.526;2023-04-22T01:03:49;12.20;99.90
22956;DHT22;40888;48.148;11.526;2023-04-22T01:06:18;12.10;99.90
22956;DHT22;40888;48.148;11.526;2023-04-22T01:08:47;12.10;99.90
22956;DHT22;40888;48.148;11.526;2023-04-22T01:11:13;12.10;99.90
22956;DHT22;40888;48.148;11.526;2023-04-22T01:13:39;12.10;99.90
22956;DHT22;40888;48.148;11.526;2023-04-22T01:16:06;12.00;99.90
22956;DHT22;40888;48.148;11.526;2023-04-22T01:18:34;12.00;99.90
22956;DHT22;40888;48.148;11.526;2023-04-22T01:21:01;11.90;99.90
22956;DHT22;40888;48.148;11.526;2023-04-22T01:23:27;11.90;99.90
22956;DHT22;40888;48.148;11.526;2023-04-22T01:25:53;11.90;99.90
22956;DHT22;40888;48.148;11.526;2023-04-22T01:28:19;11.90;99.90
22956;DHT22;40888;48.148;11.526;2023-04-22T01:30:45;11.90;99.90
22956;DHT22;40888;48.148;11.526;2023-04-22T01:33:11;11.80;99.90
22956;DHT22;40888;48.148;11.526;2023-04-22T01:35:37;11.80;99.90
22956;DHT22;40888;48.148;11.526;2023-04-22T01:38:04;11.70;99.90
22956;DHT22;40888;48.148;11.526;2023-04-22T01:40:31;11.70;99.90
22956;DHT22;40888;48.148;11.526;2023-04-22T01:43:00;11.70;99.90
22956;DHT22;40888;48.148;11.526;2023-04-22T01:45:27;11.70;99.90
22956;DHT22;40888;48.148;11.526;2023-04-22T01:47:53;11.70;99.90
22956;DHT22;40888;48.148;11.526;2023-04-22T01:50:20;11.70;99.90
22956;DHT22;40888;48.148;11.526;2023-04-22T01:52:46;11.60;99.90
22956;DHT22;40888;48.148;11.526;2023-04-22T01:55:12;11.60;99.90
22956;DHT22;40888;48.148;11.526;2023-04-22T01:57:37;11.60;99.90
22956;DHT22;40888;48.148;11.526;2023-04-22T02:00:04;11.70;99.90
22956;DHT22;40888;48.148;11.526;2023-04-22T02:02:30;11.60;99.90
22956;DHT22;40888;48.148;11.526;2023-04-22T02:04:56;11.60;99.90
22956;DHT22;40888;48.148;11.526;2023-04-22T02:07:22;11.70;99.90
22956;DHT22;40888;48.148;11.526;2023-04-22T02:09:49;11.70;99.90
22956;DHT22;40888;48.148;11.526;2023-04-22T02:12:14;11.80;99.90
22956;DHT22;40888;48.148;11.526;2023-04-22T02:14:40;11.70;99.90
22956;DHT22;40888;48.148;11.526;2023-04-22T02:17:06;11.70;99.90
22956;DHT22;40888;48.148;11.526;2023-04-22T02:19:32;11.70;99.90
22956;DHT22;40888;48.148;11.526;2023-04-22T02:21:58;11.60;99.90
22956;DHT22;40888;48.148;11.526;2023-04-22T02:24:24;11.60;99.90
22956;DHT22;40888;48.148;11.526;2023-04-22T02:26:49;11.60;99.90
22956;DHT22;40888;48.148;11.526;2023-04-22T02:29:15;11.60;99.90
22956;DHT22;40888;48.148;11.526;2023-04-22T02:31:41;11.50;99.90
22956;DHT22;40888;48.148;11.526;2023-04-22T02:34:07;11.40;99.90
22956;DHT22;40888;48.148;11.526;2023-04-22T02:36:33;11.30;99.90
22956;DHT22;40888;48.148;11.526;2023-04-22T02:39:02;11.20;99.90
22956;DHT22;40888;48.148;11.526;2023-04-22T02:41:30;11.10;99.90
22956;DHT22;40888;48.148;11.526;2023-04-22T02:43:56;11.10;99.90
22956;DHT22;40888;48.148;11.526;2023-04-22T02:46:22;11.10;99.90
22956;DHT22;40888;48.148;11.526;2023-04-22T02:48:48;11.10;99.90
22956;DHT22;40888;48.148;11.526;2023-04-22T02:51:14;11.10;99.90
22956;DHT22;40888;48.148;11.526;2023-04-22T02:53:40;11.00;99.90
22956;DHT22;40888;48.148;11.526;2023-04-22T02:56:06;10.90;99.90
22956;DHT22;40888;48.148;11.526;2023-04-22T02:58:33;10.90;99.90
22956;DHT22;40888;48.148;11.526;2023-04-22T03:00:59;10.90;99.90
22956;DHT22;40888;48.148;11.526;2023-04-22T03:03:25;10.90;99.90
22956;DHT22;40888;48.148;11.526;2023-04-22T03:05:51;10.90;99.90
22956;DHT22;40888;48.148;11.526;2023-04-22T03:08:17;10.90;99.90
22956;DHT22;40888;48.148;11.526;2023-04-22T03:10:43;10.70;99.90
22956;DHT22;40888;48.148;11.526;2023-04-22T03:13:09;10.80;99.90
22956;DHT22;40888;48.148;11.526;2023-04-22T03:15:34;10.80;99.90
22956;DHT22;40888;48.148;11.526;2023-04-22T03:18:00;10.90;99.90
22956;DHT22;40888;48.148;11.526;2023-04-22T03:20:26;10.80;99.90
22956;DHT22;40888;48.148;11.526;2023-04-22T03:22:51;10.80;99.90
22956;DHT22;40888;48.148;11.526;2023-04-22T03:25:17;10.70;99.90
22956;DHT22;40888;48.148;11.526;2023-04-22T03:27:43;10.60;99.90
22956;DHT22;40888;48.148;11.526;2023-04-22T03:30:09;10.70;99.90
22956;DHT22;40888;48.148;11.526;2023-04-22T03:32:35;10.70;99.90
22956;DHT22;40888;48.148;11.526;2023-04-22T03:35:00;10.70;99.90
22956;DHT22;40888;48.148;11.526;2023-04-22T03:37:27;10.60;99.90
22956;DHT22;40888;48.148;11.526;2023-04-22T03:39:53;10.70;99.90
22956;DHT22;40888;48.148;11.526;2023-04-22T03:42:18;10.70;99.90
22956;DHT22;40888;48.148;11.526;2023-04-22T03:44:44;10.70;99.90
22956;DHT22;40888;48.148;11.526;2023-04-22T03:47:10;10.70;99.90
22956;DHT22;40888;48.148;11.526;2023-04-22T03:49:36;10.60;99.90
22956;DHT22;40888;48.148;11.526;2023-04-22T03:52:01;10.50;99.90
22956;DHT22;40888;48.148;11.526;2023-04-22T03:54:28;10.40;99.90
22956;DHT22;40888;48.148;11.526;2023-04-22T03:56:54;10.30;99.90
22956;DHT22;40888;48.148;11.526;2023-04-22T03:59:19;10.40;99.90
22956;DHT22;40888;48.148;11.526;2023-04-22T04:01:46;10.30;99.90
22956;DHT22;40888;48.148;11.526;2023-04-22T04:04:12;10.30;99.90
22956;DHT22;40888;48.148;11.526;2023-04-22T04:06:38;10.30;99.90
22956;DHT22;40888;48.148;11.526;2023-04-22T04:09:04;10.40;99.90
22956;DHT22;40888;48.148;11.526;2023-04-22T04:11:30;10.40;99.90
22956;DHT22;40888;48.148;11.526;2023-04-22T04:13:56;10.40;99.90
22956;DHT22;40888;48.148;11.526;2023-04-22T04:16:21;10.40;99.90
22956;DHT22;40888;48.148;11.526;2023-04-22T04:18:50;10.50;99.90
22956;DHT22;40888;48.148;11.526;2023-04-22T04:21:17;10.50;99.90
22956;DHT22;40888;48.148;11.526;2023-04-22T04:23:42;10.50;99.90
22956;DHT22;40888;48.148;11.526;2023-04-22T04:26:08;10.40;99.90
22956;DHT22;40888;48.148;11.526;2023-04-22T04:28:35;10.50;99.90
22956;DHT22;40888;48.148;11.526;2023-04-22T04:31:01;10.50;99.90
22956;DHT22;40888;48.148;11.526;2023-04-22T04:33:29;10.50;99.90
22956;DHT22;40888;48.148;11.526;2023-04-22T04:35:56;10.50;99.90
22956;DHT22;40888;48.148;11.526;2023-04-22T04:38:24;10.40;99.90
22956;DHT22;40888;48.148;11.526;2023-04-22T04:40:51;10.40;99.90
22956;DHT22;40888;48.148;11.526;2023-04-22T04:43:17;10.50;99.90
22956;DHT22;40888;48.148;11.526;2023-04-22T04:45:43;10.50;99.90
22956;DHT22;40888;48.148;11.526;2023-04-22T04:48:12;10.50;99.90
22956;DHT22;40888;48.148;11.526;2023-04-22T04:50:41;10.50;99.90
22956;DHT22;40888;48.148;11.526;2023-04-22T04:53:07;10.50;99.90
22956;DHT22;40888;48.148;11.526;2023-04-22T04:55:33;10.50;99.90
22956;DHT22;40888;48.148;11.526;2023-04-22T04:57:59;10.50;99.90
22956;DHT22;40888;48.148;11.526;2023-04-22T05:00:25;10.50;99.90
22956;DHT22;40888;48.148;11.526;2023-04-22T05:02:50;10.50;99.90
22956;DHT22;40888;48.148;11.526;2023-04-22T05:05:16;10.60;99.90
22956;DHT22;40888;48.148;11.526;2023-04-22T05:07:42;10.50;99.90
22956;DHT22;40888;48.148;11.526;2023-04-22T05:10:08;10.60;99.90
22956;DHT22;40888;48.148;11.526;2023-04-22T05:12:34;10.50;99.90
22956;DHT22;40888;48.148;11.526;2023-04-22T05:15:00;10.50;99.90
22956;DHT22;40888;48.148;11.526;2023-04-22T05:17:26;10.50;99.90
22956;DHT22;40888;48.148;11.526;2023-04-22T05:19:52;10.50;99.90
22956;DHT22;40888;48.148;11.526;2023-04-22T05:22:18;10.60;99.90
22956;DHT22;40888;48.148;11.526;2023-04-22T05:24:44;10.50;99.90
22956;DHT22;40888;48.148;11.526;2023-04-22T05:27:10;10.60;99.90
22956;DHT22;40888;48.148;11.526;2023-04-22T05:29:36;10.70;99.90
22956;DHT22;40888;48.148;11.526;2023-04-22T05:32:01;10.70;99.90
22956;DHT22;40888;48.148;11.526;2023-04-22T05:34:27;10.80;99.90
22956;DHT22;40888;48.148;11.526;2023-04-22T05:36:53;10.80;99.90
22956;DHT22;40888;48.148;11.526;2023-04-22T05:39:19;10.90;99.90
22956;DHT22;40888;48.148;11.526;2023-04-22T05:41:45;10.90;99.90
22956;DHT22;40888;48.148;11.526;2023-04-22T05:44:10;11.00;99.90
22956;DHT22;40888;48.148;11.526;2023-04-22T05:46:36;11.10;99.90
22956;DHT22;40888;48.148;11.526;2023-04-22T05:49:02;11.10;99.90
22956;DHT22;40888;48.148;11.526;2023-04-22T05:51:28;11.10;99.90
22956;DHT22;40888;48.148;11.526;2023-04-22T05:53:54;11.20;99.90
22956;DHT22;40888;48.148;11.526;2023-04-22T05:56:19;11.30;99.90
22956;DHT22;40888;48.148;11.526;2023-04-22T05:58:45;11.30;99.90
22956;DHT22;40888;48.148;11.526;2023-04-22T06:01:11;11.40;99.90
22956;DHT22;40888;48.148;11.526;2023-04-22T06:03:37;11.50;99.90
22956;DHT22;40888;48.148;11.526;2023-04-22T06:06:03;11.60;99.90
22956;DHT22;40888;48.148;11.526;2023-04-22T06:08:30;11.70;99.90
22956;DHT22;40888;48.148;11.526;2023-04-22T06:10:56;11.80;99.90
22956;DHT22;40888;48.148;11.526;2023-04-22T06:13:22;11.90;99.90
22956;DHT22;40888;48.148;11.526;2023-04-22T06:15:48;11.80;99.90
22956;DHT22;40888;48.148;11.526;2023-04-22T06:18:13;11.80;99.90
22956;DHT22;40888;48.148;11.526;2023-04-22T06:20:39;11.80;99.90
22956;DHT22;40888;48.148;11.526;2023-04-22T06:23:05;11.90;99.90
22956;DHT22;40888;48.148;11.526;2023-04-22T06:25:31;12.00;99.90
22956;DHT22;40888;48.148;11.526;2023-04-22T06:28:00;12.00;96.20
22956;DHT22;40888;48.148;11.526;2023-04-22T06:30:26;12.10;96.10
22956;DHT22;40888;48.148;11.526;2023-04-22T06:32:52;12.20;95.80
22956;DHT22;40888;48.148;11.526;2023-04-22T06:35:20;12.20;95.30
22956;DHT22;40888;48.148;11.526;2023-04-22T06:37:47;12.50;92.80
22956;DHT22;40888;48.148;11.526;2023-04-22T06:40:13;12.50;91.70
22956;DHT22;40888;48.148;11.526;2023-04-22T06:42:40;12.50;91.70
22956;DHT22;40888;48.148;11.526;2023-04-22T06:45:06;12.80;88.10
22956;DHT22;40888;48.148;11.526;2023-04-22T06:47:33;12.80;86.40
22956;DHT22;40888;48.148;11.526;2023-04-22T06:50:01;12.90;86.10
22956;DHT22;40888;48.148;11.526;2023-04-22T06:52:26;12.90;84.70
22956;DHT22;40888;48.148;11.526;2023-04-22T06:54:52;13.00;83.10
22956;DHT22;40888;48.148;11.526;2023-04-22T06:57:18;13.00;86.60
22956;DHT22;40888;48.148;11.526;2023-04-22T06:59:44;13.10;84.90
22956;DHT22;40888;48.148;11.526;2023-04-22T07:02:10;13.10;85.10
22956;DHT22;40888;48.148;11.526;2023-04-22T07:04:36;13.20;82.00
22956;DHT22;40888;48.148;11.526;2023-04-22T07:07:01;13.40;78.10
22956;DHT22;40888;48.148;11.526;2023-04-22T07:09:28;13.40;76.70
22956;DHT22;40888;48.148;11.526;2023-04-22T07:11:53;13.30;77.80
22956;DHT22;40888;48.148;11.526;2023-04-22T07:14:19;13.60;74.90
22956;DHT22;40888;48.148;11.526;2023-04-22T07:16:45;13.80;74.80
22956;DHT22;40888;48.148;11.526;2023-04-22T07:19:11;14.00;73.00
22956;DHT22;40888;48.148;11.526;2023-04-22T07:21:37;14.30;69.80
22956;DHT22;40888;48.148;11.526;2023-04-22T07:24:03;14.30;68.20
22956;DHT22;40888;48.148;11.526;2023-04-22T07:26:28;14.40;67.20
22956;DHT22;40888;48.148;11.526;2023-04-22T07:28:56;14.20;68.80
22956;DHT22;40888;48.148;11.526;2023-04-22T07:31:22;14.10;69.60
22956;DHT22;40888;48.148;11.526;2023-04-22T07:33:48;14.00;69.50
22956;DHT22;40888;48.148;11.526;2023-04-22T07:36:14;14.10;71.50
22956;DHT22;40888;48.148;11.526;2023-04-22T07:38:39;14.10;70.00
22956;DHT22;40888;48.148;11.526;2023-04-22T07:41:05;14.40;69.70
22956;DHT22;40888;48.148;11.526;2023-04-22T07:43:32;14.60;71.70
22956;DHT22;40888;48.148;11.526;2023-04-22T07:45:57;14.90;71.80
22956;DHT22;40888;48.148;11.526;2023-04-22T07:48:23;15.10;67.40
22956;DHT22;40888;48.148;11.526;2023-04-22T07:50:49;14.90;69.00
22956;DHT22;40888;48.148;11.526;2023-04-22T07:53:15;15.00;65.00
22956;DHT22;40888;48.148;11.526;2023-04-22T07:55:42;15.10;64.50
22956;DHT22;40888;48.148;11.526;2023-04-22T07:58:07;15.10;65.80
22956;DHT22;40888;48.148;11.526;2023-04-22T08:00:34;15.20;64.20
22956;DHT22;40888;48.148;11.526;2023-04-22T08:03:00;15.10;65.30
22956;DHT22;40888;48.148;11.526;2023-04-22T08:05:26;15.20;66.00
22956;DHT22;40888;48.148;11.526;2023-04-22T08:07:52;15.50;64.70
22956;DHT22;40888;48.148;11.526;2023-04-22T08:10:18;15.60;64.50
22956;DHT22;40888;48.148;11.526;2023-04-22T08:12:43;15.70;64.60
22956;DHT22;40888;48.148;11.526;2023-04-22T08:15:09;16.00;63.40
22956;DHT22;40888;48.148;11.526;2023-04-22T08:17:35;16.00;61.50
22956;DHT22;40888;48.148;11.526;2023-04-22T08:20:01;15.80;60.20
22956;DHT22;40888;48.148;11.526;2023-04-22T08:22:26;16.00;60.30
22956;DHT22;40888;48.148;11.526;2023-04-22T08:24:52;16.00;58.20
22956;DHT22;40888;48.148;11.526;2023-04-22T08:27:20;16.00;58.50
22956;DHT22;40888;48.148;11.526;2023-04-22T08:29:46;16.50;55.50
22956;DHT22;40888;48.148;11.526;2023-04-22T08:32:12;16.40;55.60
22956;DHT22;40888;48.148;11.526;2023-04-22T08:34:37;16.60;56.40
22956;DHT22;40888;48.148;11.526;2023-04-22T08:37:03;16.60;57.40
22956;DHT22;40888;48.148;11.526;2023-04-22T08:39:29;16.60;56.70
22956;DHT22;40888;48.148;11.526;2023-04-22T08:41:55;16.50;57.10
22956;DHT22;40888;48.148;11.526;2023-04-22T08:44:22;16.50;54.80
22956;DHT22;40888;48.148;11.526;2023-04-22T08:46:49;16.70;55.20
22956;DHT22;40888;48.148;11.526;2023-04-22T08:49:15;16.60;57.00
22956;DHT22;40888;48.148;11.526;2023-04-22T08:51:42;16.90;56.60
22956;DHT22;40888;48.148;11.526;2023-04-22T08:54:09;17.30;53.60
22956;DHT22;40888;48.148;11.526;2023-04-22T08:56:37;17.50;53.40
22956;DHT22;40888;48.148;11.526;2023-04-22T08:59:05;17.40;52.30
22956;DHT22;40888;48.148;11.526;2023-04-22T09:01:32;17.20;52.00
22956;DHT22;40888;48.148;11.526;2023-04-22T09:03:59;17.10;52.40
22956;DHT22;40888;48.148;11.526;2023-04-22T09:06:25;17.30;50.70
22956;DHT22;40888;48.148;11.526;2023-04-22T09:08:52;17.80;51.30
22956;DHT22;40888;48.148;11.526;2023-04-22T09:11:18;17.60;50.90
22956;DHT22;40888;48.148;11.526;2023-04-22T09:13:44;17.90;50.60
22956;DHT22;40888;48.148;11.526;2023-04-22T09:16:10;18.00;48.90
22956;DHT22;40888;48.148;11.526;2023-04-22T09:18:42;18.30;49.40
22956;DHT22;40888;48.148;11.526;2023-04-22T09:21:10;18.40;47.10
22956;DHT22;40888;48.148;11.526;2023-04-22T09:24:03;18.50;48.80
22956;DHT22;40888;48.148;11.526;2023-04-22T09:26:31;18.80;46.10
22956;DHT22;40888;48.148;11.526;2023-04-22T09:28:57;19.00;46.40
22956;DHT22;40888;48.148;11.526;2023-04-22T09:31:25;18.80;49.90
22956;DHT22;40888;48.148;11.526;2023-04-22T09:33:53;18.90;49.50
22956;DHT22;40888;48.148;11.526;2023-04-22T09:36:26;19.00;48.20
22956;DHT22;40888;48.148;11.526;2023-04-22T09:38:57;19.20;48.20
22956;DHT22;40888;48.148;11.526;2023-04-22T09:41:31;19.00;46.10
22956;DHT22;40888;48.148;11.526;2023-04-22T09:43:59;19.00;45.90
22956;DHT22;40888;48.148;11.526;2023-04-22T09:46:26;18.60;46.80
22956;DHT22;40888;48.148;11.526;2023-04-22T09:48:54;19.00;49.60
22956;DHT22;40888;48.148;11.526;2023-04-22T09:51:20;19.10;48.20
22956;DHT22;40888;48.148;11.526;2023-04-22T09:53:56;19.00;48.40
22956;DHT22;40888;48.148;11.526;2023-04-22T09:56:39;19.00;48.20
22956;DHT22;40888;48.148;11.526;2023-04-22T09:59:05;18.90;47.00
22956;DHT22;40888;48.148;11.526;2023-04-22T10:01:35;19.00;50.30
22956;DHT22;40888;48.148;11.526;2023-04-22T10:04:02;19.40;49.80
22956;DHT22;40888;48.148;11.526;2023-04-22T10:06:27;19.30;48.10
22956;DHT22;40888;48.148;11.526;2023-04-22T10:08:58;20.10;45.10
22956;DHT22;40888;48.148;11.526;2023-04-22T10:11:24;20.30;44.10
22956;DHT22;40888;48.148;11.526;2023-04-22T10:13:50;20.30;45.70
22956;DHT22;40888;48.148;11.526;2023-04-22T10:16:18;20.10;44.90
22956;DHT22;40888;48.148;11.526;2023-04-22T10:18:46;19.70;44.30
22956;DHT22;40888;48.148;11.526;2023-04-22T10:21:13;19.80;45.20
22956;DHT22;40888;48.148;11.526;2023-04-22T10:23:44;19.70;47.30
22956;DHT22;40888;48.148;11.526;2023-04-22T10:26:10;19.70;47.00
22956;DHT22;40888;48.148;11.526;2023-04-22T10:28:42;20.20;48.50
22956;DHT22;40888;48.148;11.526;2023-04-22T10:31:21;20.30;49.00
22956;DHT22;40888;48.148;11.526;2023-04-22T10:33:47;20.30;48.20
22956;DHT22;40888;48.148;11.526;2023-04-22T10:38:41;20.60;49.60
22956;DHT22;40888;48.148;11.526;2023-04-22T10:41:34;20.50;48.30
22956;DHT22;40888;48.148;11.526;2023-04-22T10:44:07;20.30;50.00
22956;DHT22;40888;48.148;11.526;2023-04-22T10:49:05;20.60;48.50
22956;DHT22;40888;48.148;11.526;2023-04-22T10:51:54;20.60;48.20
22956;DHT22;40888;48.148;11.526;2023-04-22T10:57:12;20.90;48.00
22956;DHT22;40888;48.148;11.526;2023-04-22T10:59:54;21.40;43.20
22956;DHT22;40888;48.148;11.526;2023-04-22T11:02:21;21.10;44.50
22956;DHT22;40888;48.148;11.526;2023-04-22T11:04:48;21.10;46.90
22956;DHT22;40888;48.148;11.526;2023-04-22T11:09:58;21.40;47.90
22956;DHT22;40888;48.148;11.526;2023-04-22T11:17:36;21.90;43.00
22956;DHT22;40888;48.148;11.526;2023-04-22T11:20:03;22.00;46.00
22956;DHT22;40888;48.148;11.526;2023-04-22T11:22:37;22.10;42.60
22956;DHT22;40888;48.148;11.526;2023-04-22T11:25:04;22.20;42.50
22956;DHT22;40888;48.148;11.526;2023-04-22T11:27:31;22.00;43.30
22956;DHT22;40888;48.148;11.526;2023-04-22T11:30:08;22.20;41.90
22956;DHT22;40888;48.148;11.526;2023-04-22T11:32:36;22.30;42.30
22956;DHT22;40888;48.148;11.526;2023-04-22T11:35:07;22.70;41.50
22956;DHT22;40888;48.148;11.526;2023-04-22T11:38:03;23.10;37.60
22956;DHT22;40888;48.148;11.526;2023-04-22T11:40:32;23.10;38.30
22956;DHT22;40888;48.148;11.526;2023-04-22T11:43:00;22.80;39.70
22956;DHT22;40888;48.148;11.526;2023-04-22T11:45:28;22.90;39.10
22956;DHT22;40888;48.148;11.526;2023-04-22T11:47:54;22.10;39.50
22956;DHT22;40888;48.148;11.526;2023-04-22T11:50:26;22.00;41.10
22956;DHT22;40888;48.148;11.526;2023-04-22T11:55:26;22.90;39.70
22956;DHT22;40888;48.148;11.526;2023-04-22T11:58:08;22.90;40.00
22956;DHT22;40888;48.148;11.526;2023-04-22T12:00:38;23.40;39.10
22956;DHT22;40888;48.148;11.526;2023-04-22T12:03:07;23.00;40.80
22956;DHT22;40888;48.148;11.526;2023-04-22T12:05:39;23.30;37.80
22956;DHT22;40888;48.148;11.526;2023-04-22T12:08:10;23.70;38.30
22956;DHT22;40888;48.148;11.526;2023-04-22T12:10:53;23.40;39.50
22956;DHT22;40888;48.148;11.526;2023-04-22T12:13:24;23.40;40.50
22956;DHT22;40888;48.148;11.526;2023-04-22T12:15:58;23.40;39.50
22956;DHT22;40888;48.148;11.526;2023-04-22T12:18:38;23.50;40.30
22956;DHT22;40888;48.148;11.526;2023-04-22T12:21:11;23.70;39.30
22956;DHT22;40888;48.148;11.526;2023-04-22T12:23:42;23.40;39.10
22956;DHT22;40888;48.148;11.526;2023-04-22T12:26:08;23.00;39.50
22956;DHT22;40888;48.148;11.526;2023-04-22T12:28:35;23.30;39.90
22956;DHT22;40888;48.148;11.526;2023-04-22T12:31:01;22.90;41.10
22956;DHT22;40888;48.148;11.526;2023-04-22T12:33:27;22.70;41.60
22956;DHT22;40888;48.148;11.526;2023-04-22T12:35:52;23.50;36.90
22956;DHT22;40888;48.148;11.526;2023-04-22T12:38:18;24.00;34.70
22956;DHT22;40888;48.148;11.526;2023-04-22T12:40:44;23.80;35.50
22956;DHT22;40888;48.148;11.526;2023-04-22T12:43:10;23.50;37.10
22956;DHT22;40888;48.148;11.526;2023-04-22T12:45:36;23.20;38.40
22956;DHT22;40888;48.148;11.526;2023-04-22T12:48:02;23.00;40.20
22956;DHT22;40888;48.148;11.526;2023-04-22T12:50:28;23.40;40.80
22956;DHT22;40888;48.148;11.526;2023-04-22T12:52:54;23.10;43.40
22956;DHT22;40888;48.148;11.526;2023-04-22T12:55:20;22.90;40.80
22956;DHT22;40888;48.148;11.526;2023-04-22T12:57:47;23.00;40.10
22956;DHT22;40888;48.148;11.526;2023-04-22T13:00:15;23.10;41.20
22956;DHT22;40888;48.148;11.526;2023-04-22T13:02:42;23.00;42.30
22956;DHT22;40888;48.148;11.526;2023-04-22T13:05:08;23.10;42.60
22956;DHT22;40888;48.148;11.526;2023-04-22T13:07:35;23.20;43.00
22956;DHT22;40888;48.148;11.526;2023-04-22T13:10:01;23.20;43.40
22956;DHT22;40888;48.148;11.526;2023-04-22T13:12:27;23.60;41.80
22956;DHT22;40888;48.148;11.526;2023-04-22T13:14:52;23.50;41.30
22956;DHT22;40888;48.148;11.526;2023-04-22T13:17:18;23.60;40.20
22956;DHT22;40888;48.148;11.526;2023-04-22T13:19:44;23.40;41.20
22956;DHT22;40888;48.148;11.526;2023-04-22T13:22:10;23.90;41.80
22956;DHT22;40888;48.148;11.526;2023-04-22T13:24:36;24.60;39.80
22956;DHT22;40888;48.148;11.526;2023-04-22T13:27:01;24.10;39.00
22956;DHT22;40888;48.148;11.526;2023-04-22T13:29:27;24.10;39.40
22956;DHT22;40888;48.148;11.526;2023-04-22T13:31:53;24.30;38.10
22956;DHT22;40888;48.148;11.526;2023-04-22T13:34:19;24.30;38.40
22956;DHT22;40888;48.148;11.526;2023-04-22T13:36:44;24.50;38.40
22956;DHT22;40888;48.148;11.526;2023-04-22T13:39:11;24.70;39.10
22956;DHT22;40888;48.148;11.526;2023-04-22T13:41:37;24.70;38.40
22956;DHT22;40888;48.148;11.526;2023-04-22T13:44:03;24.20;39.10
22956;DHT22;40888;48.148;11.526;2023-04-22T13:46:29;24.30;39.30
22956;DHT22;40888;48.148;11.526;2023-04-22T13:48:55;23.70;39.70
22956;DHT22;40888;48.148;11.526;2023-04-22T13:51:21;24.10;39.30
22956;DHT22;40888;48.148;11.526;2023-04-22T13:53:47;23.80;40.60
22956;DHT22;40888;48.148;11.526;2023-04-22T13:56:13;24.10;40.90
22956;DHT22;40888;48.148;11.526;2023-04-22T13:58:40;23.90;39.50
22956;DHT22;40888;48.148;11.526;2023-04-22T14:01:07;23.60;40.00
22956;DHT22;40888;48.148;11.526;2023-04-22T14:03:34;23.70;39.10
22956;DHT22;40888;48.148;11.526;2023-04-22T14:06:00;24.00;40.00
22956;DHT22;40888;48.148;11.526;2023-04-22T14:08:26;23.90;38.80
22956;DHT22;40888;48.148;11.526;2023-04-22T14:10:53;24.20;40.50
22956;DHT22;40888;48.148;11.526;2023-04-22T14:13:18;24.20;39.00
22956;DHT22;40888;48.148;11.526;2023-04-22T14:15:46;24.50;36.40
22956;DHT22;40888;48.148;11.526;2023-04-22T14:18:11;24.40;38.10
22956;DHT22;40888;48.148;11.526;2023-04-22T14:20:37;24.40;38.90
22956;DHT22;40888;48.148;11.526;2023-04-22T14:23:03;24.70;38.90
22956;DHT22;40888;48.148;11.526;2023-04-22T14:25:30;24.90;37.30
22956;DHT22;40888;48.148;11.526;2023-04-22T14:27:56;24.70;38.80
22956;DHT22;40888;48.148;11.526;2023-04-22T14:30:22;25.10;35.00
22956;DHT22;40888;48.148;11.526;2023-04-22T14:32:48;24.50;36.80
22956;DHT22;40888;48.148;11.526;2023-04-22T14:35:14;25.00;36.80
22956;DHT22;40888;48.148;11.526;2023-04-22T14:37:40;25.20;38.50
22956;DHT22;40888;48.148;11.526;2023-04-22T14:40:08;25.20;37.20
22956;DHT22;40888;48.148;11.526;2023-04-22T14:42:34;25.30;36.70
22956;DHT22;40888;48.148;11.526;2023-04-22T14:45:00;24.90;36.60
22956;DHT22;40888;48.148;11.526;2023-04-22T14:47:26;24.70;37.10
22956;DHT22;40888;48.148;11.526;2023-04-22T14:49:51;24.90;36.70
22956;DHT22;40888;48.148;11.526;2023-04-22T14:52:17;25.00;35.90
22956;DHT22;40888;48.148;11.526;2023-04-22T14:54:43;24.90;36.70
22956;DHT22;40888;48.148;11.526;2023-04-22T14:57:09;24.90;36.60
22956;DHT22;40888;48.148;11.526;2023-04-22T14:59:35;24.90;35.20
22956;DHT22;40888;48.148;11.526;2023-04-22T15:02:00;24.90;37.10
22956;DHT22;40888;48.148;11.526;2023-04-22T15:04:26;25.00;36.50
22956;DHT22;40888;48.148;11.526;2023-04-22T15:06:52;24.60;36.70
22956;DHT22;40888;48.148;11.526;2023-04-22T15:09:22;24.20;38.50
22956;DHT22;40888;48.148;11.526;2023-04-22T15:11:49;24.10;38.80
22956;DHT22;40888;48.148;11.526;2023-04-22T15:14:15;24.20;38.50
22956;DHT22;40888;48.148;11.526;2023-04-22T15:16:42;24.20;39.20
22956;DHT22;40888;48.148;11.526;2023-04-22T15:19:07;24.50;37.50
22956;DHT22;40888;48.148;11.526;2023-04-22T15:21:33;24.10;38.40
22956;DHT22;40888;48.148;11.526;2023-04-22T15:23:59;23.70;40.10
22956;DHT22;40888;48.148;11.526;2023-04-22T15:26:25;23.40;40.70
22956;DHT22;40888;48.148;11.526;2023-04-22T15:28:50;23.60;38.50
22956;DHT22;40888;48.148;11.526;2023-04-22T15:31:19;23.60;38.60